CheckWX is a tool to help pilots better visualize weather data.  It is not intended as a substitute for an official pre-flight weather briefing.

06:20:49 UTC

KBMI TAF
Central Illinois Regional at Bloomington-Normal Airport
Bloomington/Normal, Illinois, USA
KBMI 280523Z 2806/2906 32007KT P6SM FEW250 FM281200 29006KT P6SM OVC040 FM281400 30010KT P6SM VCSH OVC020 FM282300 32010KT P6SM BKN040 FM290100 33009KT P6SM SKC

Feb-28@
06:00 UTC

Feb-28 @ 06:00 UTC

Feb-28@
12:00 UTC

Feb-28 @ 12:00 UTC

KBMI 280523Z 2806/2906 32007KT P6SM FEW250
Wind
  • 320° at 7 KTS
Cloud Levels
  • Few at 25,000' AGL

Feb-28@
12:00 UTC

Feb-28 @ 12:00 UTC

Feb-28@
14:00 UTC

Feb-28 @ 14:00 UTC

FM281200 29006KT P6SM OVC040

From

From Standard forecast or significant change

Wind
  • 290° at 6 KTS
Cloud Levels
  • Overcast at 4,000' AGL

Feb-28@
14:00 UTC

Feb-28 @ 14:00 UTC

Feb-28@
23:00 UTC

Feb-28 @ 23:00 UTC

FM281400 30010KT P6SM VCSH OVC020

From

From Standard forecast or significant change

Wind
  • 300° at 10 KTS
Cloud Levels
  • Overcast at 2,000' AGL

Feb-28@
23:00 UTC

Feb-28 @ 23:00 UTC

Feb-29@
01:00 UTC

Feb-29 @ 01:00 UTC

FM282300 32010KT P6SM BKN040

From

From Standard forecast or significant change

Wind
  • 320° at 10 KTS
Cloud Levels
  • Broken at 4,000' AGL

Feb-29@
01:00 UTC

Feb-29 @ 01:00 UTC

Feb-29@
06:00 UTC

Feb-29 @ 06:00 UTC

FM290100 33009KT P6SM SKC

From

From Standard forecast or significant change

Wind
  • 330° at 9 KTS
Cloud Levels
  • Clear skies